Time;durP1;ratioP1;P1;durP2;ratioP2;P2;SDS_P1;SDS_P2;PMS_P1;PMS_P2;Temp;Humidity;BMP_temperature;BMP_pressure;BME280_temperature;BME280_humidity;BME280_pressure;Samples;Min_cycle;Max_cycle;Signal;HPM_P1;HPM_P2
2023/07/28 00:08:09;;;;;;;7.37;5.03;;;27.60;32.00;;;;;;20919791;28;20328;-58
2023/07/28 00:18:10;;;;;;;7.17;4.97;;;27.60;32.10;;;;;;20919965;28;20514;-57
2023/07/28 00:28:11;;;;;;;8.47;5.33;;;27.60;32.60;;;;;;20918674;28;20490;-57
2023/07/28 00:38:11;;;;;;;7.63;5.80;;;27.40;32.90;;;;;;20918158;28;20492;-57
2023/07/28 00:48:14;;;;;;;8.50;5.10;;;27.40;33.30;;;;;;20918530;28;20545;-57
2023/07/28 00:58:15;;;;;;;7.60;5.50;;;27.50;33.20;;;;;;20916384;28;20176;-57
2023/07/28 01:08:46;;;;;;;9.90;5.82;;;27.40;33.20;;;;;;20916320;28;20513;-57
2023/07/28 01:18:47;;;;;;;10.13;4.78;;;27.40;33.10;;;;;;20908855;28;20055;-57
2023/07/28 01:28:48;;;;;;;9.05;5.25;;;27.20;33.00;;;;;;20914750;28;20044;-57
2023/07/28 01:38:49;;;;;;;8.00;5.10;;;27.10;33.20;;;;;;20914198;28;20107;-57
2023/07/28 01:48:50;;;;;;;10.33;4.73;;;26.90;33.60;;;;;;20913719;28;20308;-57
2023/07/28 01:58:51;;;;;;;7.10;4.97;;;26.70;33.80;;;;;;20911875;28;20410;-57
2023/07/28 02:08:51;;;;;;;12.30;8.63;;;26.60;34.10;;;;;;20912645;28;20049;-57
2023/07/28 02:18:52;;;;;;;7.13;5.03;;;26.60;34.60;;;;;;20911208;28;20095;-57
2023/07/28 02:28:53;;;;;;;9.00;4.67;;;26.80;34.50;;;;;;20912493;28;20056;-56
2023/07/28 02:38:53;;;;;;;7.47;4.70;;;26.70;34.80;;;;;;20912713;28;20044;-57
2023/07/28 02:48:54;;;;;;;6.00;5.00;;;26.60;35.00;;;;;;20926562;28;20051;-57
2023/07/28 02:58:55;;;;;;;10.53;6.30;;;26.60;35.20;;;;;;20925993;28;20076;-56
2023/07/28 03:08:58;;;;;;;6.53;4.32;;;26.40;35.60;;;;;;20924151;28;20060;-57
2023/07/28 03:18:59;;;;;;;8.27;5.45;;;26.20;35.90;;;;;;20923647;28;20045;-56
2023/07/28 03:29:00;;;;;;;8.20;4.60;;;26.10;35.90;;;;;;20924506;28;20495;-57
2023/07/28 03:39:01;;;;;;;10.07;5.43;;;25.90;36.00;;;;;;20922281;28;20049;-56
2023/07/28 03:49:01;;;;;;;9.20;4.93;;;25.70;36.40;;;;;;20922748;28;20037;-56
2023/07/28 03:59:02;;;;;;;7.23;5.17;;;25.80;36.20;;;;;;20919346;28;20103;-56
2023/07/28 04:09:03;;;;;;;8.07;5.50;;;25.60;36.60;;;;;;20919730;28;20512;-57
2023/07/28 04:19:04;;;;;;;9.63;5.13;;;25.50;36.70;;;;;;20920452;28;20490;-57
2023/07/28 04:29:05;;;;;;;10.67;5.97;;;25.30;37.40;;;;;;20919367;28;20037;-57
2023/07/28 04:39:05;;;;;;;10.20;6.27;;;25.30;37.60;;;;;;20918946;28;20591;-57
2023/07/28 04:49:06;;;;;;;6.50;5.03;;;25.10;37.80;;;;;;20918296;28;20045;-57
2023/07/28 04:59:07;;;;;;;9.60;5.93;;;25.10;38.50;;;;;;20917186;28;20045;-57
2023/07/28 05:09:09;;;;;;;6.53;4.55;;;25.00;38.80;;;;;;20915694;28;20056;-56
2023/07/28 05:19:09;;;;;;;8.15;4.45;;;24.90;39.50;;;;;;20915652;28;20048;-57
2023/07/28 05:29:10;;;;;;;10.23;6.28;;;24.80;39.80;;;;;;20913817;28;20045;-57
2023/07/28 05:39:11;;;;;;;9.98;5.70;;;24.70;39.40;;;;;;20914343;28;20505;-57
2023/07/28 05:49:12;;;;;;;12.23;6.45;;;24.70;39.40;;;;;;20913713;28;20045;-57
2023/07/28 05:59:12;;;;;;;10.55;6.18;;;24.60;39.20;;;;;;20911746;28;20045;-57
2023/07/28 06:09:14;;;;;;;8.85;5.25;;;24.50;39.60;;;;;;20912128;28;20080;-57
2023/07/28 06:19:16;;;;;;;11.30;5.77;;;24.60;39.60;;;;;;20922259;28;20037;-57
2023/07/28 06:29:17;;;;;;;10.98;6.30;;;24.60;39.00;;;;;;20928809;28;20088;-57
2023/07/28 06:39:18;;;;;;;11.45;5.90;;;24.40;39.40;;;;;;20926439;28;20053;-57
2023/07/28 06:49:19;;;;;;;8.13;4.35;;;24.40;39.70;;;;;;20926951;28;20128;-57
2023/07/28 06:59:20;;;;;;;12.13;5.77;;;24.70;39.70;;;;;;20926441;28;20131;-57
2023/07/28 07:09:20;;;;;;;15.87;6.73;;;25.50;38.50;;;;;;20924195;28;20060;-56
2023/07/28 07:19:21;;;;;;;18.47;6.90;;;26.10;37.10;;;;;;20924198;28;20056;-57
2023/07/28 07:29:22;;;;;;;21.87;6.80;;;26.90;37.20;;;;;;20921729;28;20076;-56
2023/07/28 07:39:23;;;;;;;30.90;6.75;;;27.20;35.20;;;;;;20921419;28;20049;-58
2023/07/28 07:49:24;;;;;;;20.20;7.28;;;27.60;34.80;;;;;;20921855;28;20532;-58
2023/07/28 07:59:27;;;;;;;20.00;5.93;;;28.10;34.10;;;;;;20919543;28;20124;-59
2023/07/28 08:09:28;;;;;;;18.15;6.20;;;28.20;33.90;;;;;;20919560;28;20326;-57
2023/07/28 08:19:29;;;;;;;14.98;5.55;;;28.50;33.50;;;;;;20919449;28;20045;-57
2023/07/28 08:29:30;;;;;;;17.52;5.57;;;28.60;33.70;;;;;;20918022;28;20045;-56
2023/07/28 08:39:30;;;;;;;10.32;4.95;;;28.90;33.40;;;;;;20916818;28;20505;-57
2023/07/28 08:49:34;;;;;;;14.55;5.85;;;29.10;33.50;;;;;;20916970;28;20045;-58
2023/07/28 08:59:36;;;;;;;11.32;6.18;;;29.30;33.10;;;;;;20916126;28;20073;-58
2023/07/28 09:09:37;;;;;;;11.13;5.18;;;29.50;33.10;;;;;;20914858;28;20092;-58
2023/07/28 09:19:58;;;;;;;8.50;5.03;;;29.70;32.80;;;;;;20915126;28;20052;-58
2023/07/28 09:29:58;;;;;;;10.50;5.15;;;30.00;31.80;;;;;;20912922;28;20045;-57
2023/07/28 09:40:04;;;;;;;8.77;4.93;;;30.20;31.20;;;;;;20913412;28;20041;-57
2023/07/28 09:50:08;;;;;;;8.80;5.43;;;30.60;30.70;;;;;;20913240;28;20441;-56
2023/07/28 10:00:11;;;;;;;7.85;5.25;;;30.50;29.90;;;;;;20912384;28;20045;-57
2023/07/28 10:10:14;;;;;;;21.40;19.15;;;30.70;29.10;;;;;;20911510;28;20061;-57
2023/07/28 10:20:34;;;;;;;9.57;4.60;;;30.80;28.80;;;;;;20911518;28;20425;-58
2023/07/28 10:30:51;;;;;;;5.97;5.13;;;31.10;28.40;;;;;;20911848;28;20521;-57
2023/07/28 10:40:51;;;;;;;7.88;5.80;;;31.10;28.40;;;;;;20910960;28;20041;-57
2023/07/28 10:50:52;;;;;;;7.93;4.80;;;31.10;28.50;;;;;;20910956;28;20047;-56
2023/07/28 11:00:53;;;;;;;11.30;8.82;;;31.50;26.80;;;;;;20911506;28;20044;-57
2023/07/28 11:10:54;;;;;;;9.52;4.30;;;31.60;26.70;;;;;;20926021;28;20399;-56
2023/07/28 11:20:54;;;;;;;6.03;4.50;;;31.70;26.00;;;;;;20924286;28;20045;-58
2023/07/28 11:30:56;;;;;;;9.98;4.85;;;31.60;27.20;;;;;;20924851;28;20437;-58
2023/07/28 11:40:57;;;;;;;9.18;5.05;;;31.60;26.90;;;;;;20923691;28;20053;-58
2023/07/28 11:50:57;;;;;;;6.78;4.60;;;31.90;25.60;;;;;;20922893;28;20106;-58
2023/07/28 12:00:58;;;;;;;5.78;4.65;;;31.60;25.90;;;;;;20920169;28;20051;-57
2023/07/28 12:10:59;;;;;;;8.02;5.20;;;31.80;26.00;;;;;;20918320;28;20061;-58
2023/07/28 12:21:00;;;;;;;7.70;4.53;;;32.00;26.00;;;;;;20913033;28;20514;-58
2023/07/28 12:31:01;;;;;;;7.65;5.05;;;31.80;25.10;;;;;;20911326;28;20053;-58
2023/07/28 12:41:02;;;;;;;6.20;4.30;;;32.10;24.80;;;;;;20919159;28;20079;-58
2023/07/28 12:51:02;;;;;;;7.25;5.43;;;32.40;24.00;;;;;;20917933;28;20051;-58
2023/07/28 13:01:04;;;;;;;6.22;4.28;;;32.70;23.70;;;;;;20909338;28;20047;-57
2023/07/28 13:11:05;;;;;;;8.45;4.80;;;32.50;24.10;;;;;;20911066;28;20479;-57
2023/07/28 13:21:10;;;;;;;8.35;4.55;;;32.60;23.00;;;;;;20915553;28;20154;-58
2023/07/28 13:31:11;;;;;;;6.50;4.15;;;32.70;22.80;;;;;;20914866;28;20087;-58
2023/07/28 13:41:11;;;;;;;7.43;4.20;;;32.80;22.70;;;;;;20913088;28;20048;-57
2023/07/28 13:51:12;;;;;;;5.70;4.57;;;32.90;21.60;;;;;;20913738;28;20094;-58
2023/07/28 14:01:13;;;;;;;6.90;4.43;;;33.10;21.80;;;;;;20911674;28;20072;-57
2023/07/28 14:11:14;;;;;;;4.78;3.63;;;33.20;21.00;;;;;;20912140;28;20647;-57
2023/07/28 14:21:14;;;;;;;6.60;4.25;;;33.20;21.00;;;;;;20912461;28;20049;-57
2023/07/28 14:31:15;;;;;;;7.30;4.50;;;33.30;21.70;;;;;;20911956;28;20081;-57
2023/07/28 14:41:16;;;;;;;6.95;3.58;;;33.20;20.80;;;;;;20922319;28;20049;-57
2023/07/28 14:51:17;;;;;;;4.85;3.60;;;33.30;21.20;;;;;;20926560;28;20072;-58
2023/07/28 15:01:18;;;;;;;6.53;4.10;;;33.50;21.10;;;;;;20926595;28;20114;-57
2023/07/28 15:11:19;;;;;;;5.53;3.90;;;33.80;21.00;;;;;;20925498;28;20049;-57
2023/07/28 15:21:19;;;;;;;6.82;4.22;;;33.60;20.80;;;;;;20925210;28;20045;-57
2023/07/28 15:31:20;;;;;;;5.50;3.67;;;33.80;20.90;;;;;;20924347;28;20132;-57
2023/07/28 15:41:21;;;;;;;4.75;4.05;;;33.60;20.70;;;;;;20923803;28;20193;-57
2023/07/28 15:51:21;;;;;;;4.45;3.72;;;33.60;19.90;;;;;;20922922;28;20051;-57
2023/07/28 16:01:22;;;;;;;5.75;3.78;;;33.60;20.00;;;;;;20922217;28;20097;-57
2023/07/28 16:11:23;;;;;;;7.93;4.00;;;33.60;19.60;;;;;;20921072;28;20060;-57
2023/07/28 16:21:24;;;;;;;4.28;3.20;;;33.70;19.40;;;;;;20920575;28;20111;-57
2023/07/28 16:31:24;;;;;;;8.13;6.35;;;33.60;19.10;;;;;;20918499;28;20045;-57
2023/07/28 16:41:25;;;;;;;5.68;3.80;;;33.60;18.60;;;;;;20917065;28;20137;-58
2023/07/28 16:51:26;;;;;;;7.72;4.47;;;33.60;16.90;;;;;;20918146;28;20124;-58
2023/07/28 17:01:27;;;;;;;6.13;3.97;;;33.60;17.80;;;;;;20914929;28;20045;-59
2023/07/28 17:11:27;;;;;;;4.88;3.80;;;33.10;17.70;;;;;;20915236;28;20055;-61
2023/07/28 17:21:28;;;;;;;16.90;6.18;;;32.90;18.20;;;;;;20914498;28;20120;-59
2023/07/28 17:31:29;;;;;;;5.40;4.50;;;32.90;18.90;;;;;;20913229;28;20099;-62
2023/07/28 17:41:30;;;;;;;6.53;4.63;;;32.80;18.70;;;;;;20913250;28;20047;-62
2023/07/28 17:51:30;;;;;;;6.13;4.30;;;32.70;18.90;;;;;;20912898;28;20126;-61
2023/07/28 18:01:31;;;;;;;5.85;4.35;;;32.60;19.50;;;;;;20912535;28;20130;-59
2023/07/28 18:11:32;;;;;;;5.30;4.40;;;32.60;19.10;;;;;;20908248;28;20053;-60
2023/07/28 18:21:33;;;;;;;7.60;4.70;;;32.30;20.00;;;;;;20909332;28;20045;-58
2023/07/28 18:31:34;;;;;;;6.68;4.88;;;32.20;20.20;;;;;;20908546;28;20091;-62
2023/07/28 18:41:35;;;;;;;7.38;5.70;;;32.10;20.30;;;;;;20906697;28;20041;-62
2023/07/28 18:51:35;;;;;;;8.30;5.85;;;32.00;20.00;;;;;;20906348;28;20045;-57
2023/07/28 19:01:36;;;;;;;7.43;5.47;;;32.10;18.90;;;;;;20906750;28;20482;-58
2023/07/28 19:11:37;;;;;;;7.75;5.38;;;32.10;18.50;;;;;;20864115;28;1253737;-57
2023/07/28 19:21:37;;;;;;;7.90;5.07;;;32.00;18.50;;;;;;20911809;28;20049;-57
2023/07/28 19:31:38;;;;;;;11.00;5.85;;;31.80;18.70;;;;;;20923796;28;20059;-57
2023/07/28 19:41:39;;;;;;;9.35;6.60;;;31.60;19.50;;;;;;20923830;28;20402;-57
2023/07/28 19:51:40;;;;;;;7.50;6.43;;;31.50;20.40;;;;;;20921758;28;20069;-57
2023/07/28 20:01:41;;;;;;;10.50;6.60;;;31.30;21.00;;;;;;20920681;28;20044;-57
2023/07/28 20:11:42;;;;;;;10.27;7.57;;;31.20;22.20;;;;;;20920453;28;20068;-57
2023/07/28 20:21:42;;;;;;;13.55;7.72;;;31.00;22.80;;;;;;20920551;28;20403;-58
2023/07/28 20:31:43;;;;;;;8.60;6.85;;;30.80;22.70;;;;;;20919504;28;20045;-56
2023/07/28 20:41:44;;;;;;;8.70;7.13;;;30.70;22.20;;;;;;20918050;28;20123;-55
2023/07/28 20:51:44;;;;;;;8.38;7.22;;;30.60;21.80;;;;;;20917790;28;20041;-57
2023/07/28 21:01:45;;;;;;;8.30;6.20;;;30.40;21.90;;;;;;20917011;28;20041;-56
2023/07/28 21:11:47;;;;;;;8.27;5.82;;;30.20;22.20;;;;;;20915839;28;20048;-57
2023/07/28 21:21:48;;;;;;;8.25;6.53;;;30.10;22.80;;;;;;20914755;28;20041;-58
2023/07/28 21:31:49;;;;;;;7.30;5.55;;;30.00;23.10;;;;;;20913820;28;20053;-56
2023/07/28 21:41:54;;;;;;;7.50;6.15;;;29.90;23.70;;;;;;20912183;28;20045;-57
2023/07/28 21:51:55;;;;;;;8.95;6.20;;;29.70;23.80;;;;;;20912917;28;20049;-57
2023/07/28 22:01:56;;;;;;;7.50;5.75;;;29.80;23.70;;;;;;20912143;28;20115;-58
2023/07/28 22:11:57;;;;;;;6.60;5.95;;;29.60;23.90;;;;;;21025684;28;20055;-56
2023/07/28 22:21:57;;;;;;;7.43;5.97;;;29.60;24.20;;;;;;21077088;28;20052;-58
2023/07/28 22:31:58;;;;;;;9.05;6.18;;;29.50;24.40;;;;;;21075921;28;20056;-56
2023/07/28 22:41:59;;;;;;;8.48;6.90;;;29.30;24.70;;;;;;21077064;28;20511;-58
2023/07/28 22:52:00;;;;;;;8.43;6.60;;;29.10;25.10;;;;;;21077039;28;20048;-58
2023/07/28 23:02:00;;;;;;;8.15;6.15;;;28.80;25.60;;;;;;21085908;28;20044;-57
2023/07/28 23:12:01;;;;;;;10.57;7.10;;;28.60;25.90;;;;;;21091162;28;20044;-58
2023/07/28 23:22:02;;;;;;;8.88;6.40;;;28.50;26.20;;;;;;21091419;28;20162;-57
2023/07/28 23:32:03;;;;;;;8.00;5.80;;;28.50;26.40;;;;;;21089707;28;20052;-57
2023/07/28 23:42:04;;;;;;;8.43;6.32;;;28.50;26.40;;;;;;21090542;28;20109;-57
2023/07/28 23:52:06;;;;;;;;;;;28.40;26.60;;;;;;21090547;28;20044;-56
